createdAt,value
2019-04-03T03:50:13.591Z,12.70
2019-04-03T03:52:41.807Z,12.60
2019-04-03T03:55:22.913Z,12.80
2019-04-03T03:57:55.373Z,13.00
2019-04-03T04:00:24.852Z,13.30
2019-04-03T04:02:53.096Z,13.50
2019-04-03T04:05:22.830Z,13.50
2019-04-03T04:07:52.526Z,13.40
2019-04-03T04:10:25.211Z,13.40
2019-04-03T04:12:51.051Z,14.00
2019-04-03T04:15:21.707Z,13.90
2019-04-03T04:17:51.763Z,13.90
2019-04-03T04:20:20.933Z,13.50
2019-04-03T04:22:50.837Z,13.60
2019-04-03T04:25:18.782Z,14.10
2019-04-03T04:27:46.725Z,14.50
2019-04-03T04:30:15.703Z,14.70
2019-04-03T04:32:46.228Z,14.50
2019-04-03T04:35:15.735Z,14.30
2019-04-03T04:37:43.626Z,14.60
2019-04-03T04:40:13.231Z,14.30
2019-04-03T04:42:43.205Z,14.40
2019-04-03T04:45:12.475Z,14.80
2019-04-03T04:47:40.380Z,14.50
2019-04-03T04:50:08.306Z,14.10
2019-04-03T04:52:37.289Z,14.20
2019-04-03T04:55:07.205Z,14.30
2019-04-03T04:57:35.209Z,14.20
2019-04-03T05:00:10.977Z,14.50
2019-04-03T05:02:39.793Z,14.70
2019-04-03T05:05:09.077Z,14.30
2019-04-03T05:07:37.136Z,14.50
2019-04-03T05:10:05.833Z,14.40
2019-04-03T05:12:34.421Z,14.70
2019-04-03T05:15:02.320Z,15.10
2019-04-03T05:17:30.362Z,15.00
2019-04-03T05:19:58.272Z,14.80
2019-04-03T05:22:26.302Z,14.80
2019-04-03T05:24:54.232Z,14.30
2019-04-03T05:27:38.206Z,13.80
2019-04-03T05:30:06.558Z,13.70
2019-04-03T05:32:35.507Z,13.50
2019-04-03T05:35:04.167Z,13.40
2019-04-03T05:37:32.526Z,13.20
2019-04-03T05:40:01.284Z,13.20
2019-04-03T05:42:31.068Z,13.00
2019-04-03T05:44:59.142Z,13.20
2019-04-03T05:50:28.476Z,14.10
2019-04-03T05:52:56.360Z,14.60
2019-04-03T05:55:25.393Z,14.30
2019-04-03T05:57:53.414Z,14.40
2019-04-03T06:00:21.558Z,14.60
2019-04-03T06:02:49.553Z,14.90
2019-04-03T06:05:20.083Z,14.70
2019-04-03T06:07:49.822Z,14.50
2019-04-03T06:10:19.658Z,14.60
2019-04-03T06:12:49.559Z,14.20
2019-04-03T06:15:17.492Z,14.40
2019-04-03T06:17:45.375Z,14.40
2019-04-03T06:20:13.267Z,14.50
2019-04-03T06:22:42.148Z,14.50
2019-04-03T06:25:13.447Z,15.00
2019-04-03T06:27:42.187Z,15.10
2019-04-03T06:30:10.150Z,15.30
2019-04-03T06:32:38.056Z,15.40
2019-04-03T06:35:07.940Z,15.60
2019-04-03T06:37:35.894Z,15.70
2019-04-03T06:40:06.664Z,15.50
2019-04-03T06:42:34.591Z,15.70
2019-04-03T06:45:06.073Z,15.40
2019-04-03T06:47:33.953Z,15.20
2019-04-03T06:50:02.203Z,15.60
2019-04-03T06:52:30.118Z,15.80
2019-04-03T06:54:58.960Z,15.50
2019-04-03T06:57:26.843Z,15.10
2019-04-03T06:59:54.728Z,15.10
2019-04-03T07:02:27.774Z,15.00
2019-04-03T07:04:56.710Z,15.10
2019-04-03T07:07:33.524Z,15.20
2019-04-03T07:09:54.260Z,15.10
2019-04-03T07:12:22.202Z,15.20
2019-04-03T07:14:50.158Z,15.30
2019-04-03T07:17:20.058Z,15.00
2019-04-03T07:19:48.888Z,15.30
2019-04-03T07:22:16.794Z,15.60
2019-04-03T07:24:44.895Z,15.70
2019-04-03T07:27:14.611Z,15.90
2019-04-03T07:29:42.415Z,15.90
2019-04-03T07:32:13.968Z,15.50
2019-04-03T07:34:42.867Z,15.30
2019-04-03T07:37:15.025Z,15.00
2019-04-03T07:39:41.663Z,14.90
2019-04-03T07:42:09.617Z,15.10
2019-04-03T07:44:37.511Z,14.90
2019-04-03T07:47:06.505Z,15.30
2019-04-03T07:49:35.372Z,15.20
2019-04-03T07:52:03.427Z,15.00
2019-04-03T07:54:31.389Z,14.60
2019-04-03T07:56:59.288Z,14.60
2019-04-03T07:59:27.173Z,14.90
2019-04-03T08:01:56.180Z,15.00
2019-04-03T08:04:25.412Z,15.20
2019-04-03T08:06:54.640Z,15.20
2019-04-03T08:09:22.575Z,15.30
2019-04-03T08:11:50.500Z,16.00
2019-04-03T08:14:20.394Z,15.70
2019-04-03T08:16:49.276Z,15.60
2019-04-03T08:19:22.786Z,16.00
2019-04-03T08:21:50.475Z,16.20
2019-04-03T08:24:18.631Z,16.10
2019-04-03T08:26:46.524Z,15.80
2019-04-03T08:29:14.452Z,15.10
2019-04-03T08:31:44.209Z,14.90
2019-04-03T08:34:16.789Z,15.30
2019-04-03T08:36:42.663Z,14.90
2019-04-03T08:39:11.599Z,14.60
2019-04-03T08:41:39.517Z,14.70
2019-04-03T08:44:09.353Z,15.10
2019-04-03T08:46:42.275Z,15.40
2019-04-03T08:49:09.759Z,15.40
2019-04-03T08:51:37.893Z,15.70
2019-04-03T08:54:05.875Z,15.90
2019-04-03T08:56:34.723Z,15.60
2019-04-03T08:59:02.621Z,15.50
2019-04-03T09:01:30.509Z,15.80
2019-04-03T09:03:59.339Z,15.60
2019-04-03T09:06:27.220Z,15.80
2019-04-03T09:08:58.207Z,15.50
2019-04-03T09:11:25.710Z,15.50
2019-04-03T09:13:55.934Z,15.20
2019-04-03T09:16:25.199Z,15.00
2019-04-03T09:18:53.107Z,15.20
2019-04-03T09:21:21.055Z,15.80
2019-04-03T09:23:48.947Z,16.10
2019-04-03T09:26:16.880Z,16.30
2019-04-03T09:28:45.975Z,15.90
2019-04-03T09:31:14.898Z,16.30
2019-04-03T09:33:45.041Z,16.60
2019-04-03T09:36:12.947Z,16.60
2019-04-03T09:38:41.881Z,16.50
2019-04-03T09:41:09.903Z,16.50
2019-04-03T09:43:41.527Z,16.70
2019-04-03T09:46:11.378Z,16.90
2019-04-03T09:48:39.287Z,16.60
2019-04-03T09:51:10.651Z,16.00
2019-04-03T09:53:50.755Z,15.90
2019-04-03T09:56:19.755Z,16.00
2019-04-03T09:58:48.645Z,16.40
2019-04-03T10:01:18.528Z,16.90
2019-04-03T10:03:47.784Z,17.00
2019-04-03T10:06:15.670Z,17.20
2019-04-03T10:08:44.547Z,17.10
2019-04-03T10:11:15.494Z,16.70
2019-04-03T10:13:45.349Z,16.70
2019-04-03T10:16:16.371Z,16.70
2019-04-03T10:18:44.792Z,17.10
2019-04-03T10:21:12.671Z,17.20
2019-04-03T10:23:40.592Z,17.30
2019-04-03T10:26:09.662Z,17.00
2019-04-03T10:28:42.103Z,16.90
2019-04-03T10:31:10.478Z,16.70
2019-04-03T10:33:40.756Z,17.20
2019-04-03T10:36:10.881Z,17.50
2019-04-03T10:38:38.523Z,17.30
2019-04-03T10:41:06.728Z,16.90
2019-04-03T10:43:36.212Z,17.00
2019-04-03T10:46:05.213Z,17.10
2019-04-03T10:48:33.185Z,16.60
2019-04-03T10:51:01.159Z,16.60
2019-04-03T10:53:29.062Z,16.90
2019-04-03T10:55:59.334Z,17.20
2019-04-03T10:58:26.938Z,17.40
2019-04-03T11:00:58.721Z,17.60
2019-04-03T11:03:26.843Z,17.60
2019-04-03T11:05:54.965Z,17.60
2019-04-03T11:08:23.903Z,17.60
2019-04-03T11:10:51.812Z,17.60
2019-04-03T11:13:20.686Z,17.70
2019-04-03T11:15:48.571Z,17.60
2019-04-03T11:18:23.878Z,17.60
2019-04-03T11:20:52.116Z,17.60
2019-04-03T11:23:30.317Z,17.90
2019-04-03T11:25:50.572Z,18.00
2019-04-03T11:28:20.727Z,18.00
2019-04-03T11:30:52.128Z,18.00
2019-04-03T11:33:19.176Z,18.00
2019-04-03T11:35:48.064Z,18.00
2019-04-03T11:38:27.151Z,17.90
2019-04-03T11:40:50.826Z,17.90
2019-04-03T11:43:19.748Z,17.90
2019-04-03T11:45:49.637Z,17.90
2019-04-03T11:48:19.470Z,17.30
2019-04-03T11:50:48.269Z,17.70
2019-04-03T11:53:16.157Z,17.70
2019-04-03T11:55:44.286Z,17.60
2019-04-03T11:58:12.569Z,17.10
2019-04-03T12:00:42.204Z,17.40
2019-04-03T12:03:11.449Z,17.50
2019-04-03T12:05:39.663Z,17.70
2019-04-03T12:08:07.550Z,17.40
2019-04-03T12:10:35.668Z,17.60
2019-04-03T12:13:04.727Z,17.90
2019-04-03T12:15:34.612Z,17.90
2019-04-03T12:18:02.939Z,18.10
2019-04-03T12:20:31.922Z,18.10
2019-04-03T12:22:59.796Z,17.70
2019-04-03T12:25:27.690Z,18.00
2019-04-03T12:27:55.735Z,18.20
2019-04-03T12:30:26.415Z,18.30
2019-04-03T12:32:54.147Z,18.60
2019-04-03T12:35:23.108Z,18.70
2019-04-03T12:37:51.273Z,18.80
2019-04-03T12:40:20.546Z,18.80
2019-04-03T12:42:48.453Z,18.70
2019-04-03T12:45:18.637Z,18.70
2019-04-03T12:47:47.760Z,18.10
2019-04-03T12:50:15.740Z,18.40
2019-04-03T12:52:44.892Z,18.70
2019-04-03T12:55:13.018Z,18.70
2019-04-03T12:57:41.858Z,18.80
2019-04-03T13:00:12.693Z,18.90
2019-04-03T13:02:41.318Z,18.90
2019-04-03T13:05:09.292Z,19.00
2019-04-03T13:07:37.566Z,18.70
2019-04-03T13:10:06.987Z,18.60
2019-04-03T13:12:35.836Z,18.90
2019-04-03T13:15:06.575Z,19.00
2019-04-03T13:17:34.806Z,18.50
2019-04-03T13:20:05.605Z,18.70
2019-04-03T13:22:33.236Z,18.90
2019-04-03T13:25:01.124Z,19.00
2019-04-03T13:27:31.706Z,19.00
2019-04-03T13:29:59.609Z,18.90
2019-04-03T13:32:28.535Z,18.80
2019-04-03T13:34:57.466Z,19.00
2019-04-03T13:37:25.578Z,19.20
2019-04-03T13:39:53.541Z,19.30
2019-04-03T13:42:22.410Z,19.30
2019-04-03T13:44:50.687Z,19.50
2019-04-03T13:47:18.662Z,19.50
2019-04-03T13:49:49.340Z,19.30
2019-04-03T13:52:16.231Z,19.60
2019-04-03T13:54:45.407Z,19.70
2019-04-03T13:57:15.459Z,19.70
2019-04-03T13:59:44.031Z,19.70
2019-04-03T14:02:13.999Z,19.70
2019-04-03T14:04:42.507Z,19.70
2019-04-03T14:07:10.435Z,19.70
2019-04-03T14:09:39.689Z,19.80
2019-04-03T14:12:08.831Z,19.60
2019-04-03T14:14:36.784Z,19.50
2019-04-03T14:17:06.099Z,19.40
2019-04-03T14:19:43.163Z,19.70
2019-04-03T14:22:06.780Z,19.70
2019-04-03T14:24:41.311Z,19.90
2019-04-03T14:27:16.448Z,19.90
2019-04-03T14:29:53.759Z,19.80
2019-04-03T14:32:22.451Z,19.90
2019-04-03T14:34:51.425Z,20.10
2019-04-03T14:37:25.945Z,20.30
2019-04-03T14:39:58.951Z,20.40
2019-04-03T14:42:28.881Z,20.20
2019-04-03T14:44:56.857Z,20.30
2019-04-03T14:47:27.892Z,20.40
2019-04-03T14:50:05.370Z,20.50
2019-04-03T14:52:36.346Z,20.60
2019-04-03T14:55:16.422Z,20.60
2019-04-03T14:57:36.259Z,20.30
2019-04-03T15:00:22.960Z,20.40
2019-04-03T15:02:45.408Z,20.20
2019-04-03T15:05:13.419Z,20.40
2019-04-03T15:07:41.314Z,20.40
2019-04-03T15:10:11.114Z,20.40
2019-04-03T15:12:52.215Z,18.90
2019-04-03T15:15:21.708Z,17.20
2019-04-03T15:17:51.034Z,16.20
2019-04-03T15:20:19.809Z,15.50
2019-04-03T15:22:47.795Z,15.20
2019-04-03T15:25:16.179Z,14.60
2019-04-03T15:27:46.268Z,14.00
2019-04-03T15:30:27.228Z,13.40
2019-04-03T15:33:31.357Z,12.90
2019-04-03T15:36:03.459Z,12.50
2019-04-03T15:38:30.891Z,11.80
2019-04-03T15:40:59.449Z,11.60
2019-04-03T15:43:28.669Z,11.30
2019-04-03T15:46:01.669Z,11.10
2019-04-03T15:48:30.668Z,11.40
2019-04-03T15:51:00.563Z,11.20
2019-04-03T15:53:29.452Z,11.10
2019-04-03T15:56:17.001Z,10.90
2019-04-03T15:58:58.286Z,11.00
2019-04-03T16:01:25.606Z,10.90
2019-04-03T16:03:58.893Z,10.80
2019-04-03T16:06:36.019Z,10.60
2019-04-03T16:09:13.353Z,10.50
2019-04-03T16:11:41.614Z,10.40
2019-04-03T16:14:13.775Z,10.60
2019-04-03T16:16:49.184Z,10.60
2019-04-03T16:19:17.459Z,10.40
2019-04-03T16:21:56.218Z,10.50
2019-04-03T16:24:29.161Z,10.40
2019-04-03T16:26:59.393Z,10.20
2019-04-03T16:29:36.168Z,10.40
2019-04-03T16:32:13.700Z,10.30
2019-04-03T16:35:00.223Z,10.10
2019-04-03T16:37:29.287Z,10.20
2019-04-03T16:39:58.131Z,10.40
2019-04-03T16:42:49.473Z,10.40
2019-04-03T16:45:18.455Z,10.50
2019-04-03T16:47:47.876Z,10.70
2019-04-03T16:50:17.029Z,10.70
2019-04-03T16:52:47.386Z,10.70
2019-04-03T16:55:26.273Z,10.70
2019-04-03T16:57:55.311Z,10.50
2019-04-03T17:00:24.497Z,10.40
2019-04-03T17:02:53.988Z,10.50
2019-04-03T17:05:30.413Z,10.50
2019-04-03T17:08:25.964Z,10.20
2019-04-03T17:10:35.457Z,10.40
2019-04-03T17:13:03.547Z,10.40
2019-04-03T17:15:35.133Z,10.30
2019-04-03T17:18:02.117Z,10.40
2019-04-03T17:20:30.130Z,10.60
2019-04-03T17:23:05.481Z,10.40
2019-04-03T17:25:45.863Z,10.30
2019-04-03T17:28:15.741Z,10.60
2019-04-03T17:30:49.897Z,10.50
2019-04-03T17:33:33.982Z,10.50
2019-04-03T17:36:03.247Z,10.90
2019-04-03T17:38:40.287Z,10.90
2019-04-03T17:41:12.560Z,10.40
2019-04-03T17:43:43.877Z,10.00
2019-04-03T17:49:24.661Z,9.70
2019-04-03T17:51:54.196Z,9.60
2019-04-03T17:54:24.041Z,9.60
2019-04-03T17:56:52.019Z,9.60
2019-04-03T17:59:25.744Z,9.70
2019-04-03T18:01:55.419Z,9.70
2019-04-03T18:04:27.539Z,9.70
2019-04-03T18:06:57.505Z,9.50
2019-04-03T18:09:26.961Z,9.40
2019-04-03T18:11:57.851Z,9.30
2019-04-03T18:14:26.588Z,9.30
2019-04-03T18:16:55.588Z,9.40
2019-04-03T18:19:36.316Z,9.60
2019-04-03T18:21:53.391Z,9.50
2019-04-03T18:24:23.222Z,9.50
2019-04-03T18:26:51.636Z,9.50
2019-04-03T18:29:20.532Z,9.70
2019-04-03T18:31:48.472Z,9.50
2019-04-03T18:34:19.579Z,9.60
2019-04-03T18:36:46.138Z,9.70
2019-04-03T18:39:14.085Z,9.60
2019-04-03T18:41:41.987Z,9.80
2019-04-03T18:44:21.578Z,9.70
2019-04-03T18:46:43.023Z,9.70
2019-04-03T18:49:11.199Z,9.70
2019-04-03T18:51:42.955Z,9.80
2019-04-03T18:54:11.580Z,9.80
2019-04-03T18:56:41.212Z,9.70
2019-04-03T18:59:09.241Z,9.80
2019-04-03T19:01:38.057Z,9.90
2019-04-03T19:04:08.087Z,10.50
2019-04-03T19:06:36.283Z,10.20
2019-04-03T19:09:09.951Z,10.60
2019-04-03T19:11:36.775Z,11.00
2019-04-03T19:14:06.674Z,11.10
2019-04-03T19:16:43.956Z,11.10
2019-04-03T19:19:08.121Z,11.10
2019-04-03T19:21:35.983Z,11.10
2019-04-03T19:24:05.069Z,11.10
2019-04-03T19:26:33.116Z,10.70
2019-04-03T19:29:01.022Z,10.60
2019-04-03T19:31:29.152Z,10.60
2019-04-03T19:33:57.134Z,10.50
2019-04-03T19:36:26.099Z,10.60
2019-04-03T19:38:54.089Z,10.40
2019-04-03T19:41:22.041Z,10.50
2019-04-03T19:43:51.006Z,10.70
2019-04-03T19:46:19.057Z,10.70
2019-04-03T19:48:48.084Z,11.00
2019-04-03T19:51:17.150Z,10.90
2019-04-03T19:53:58.653Z,10.30
2019-04-03T19:56:17.004Z,10.30
2019-04-03T19:58:46.250Z,10.20
2019-04-03T20:01:14.340Z,10.30
2019-04-03T20:03:44.063Z,10.10
2019-04-03T20:06:12.957Z,9.90
2019-04-03T20:08:40.980Z,10.10
2019-04-03T20:11:08.976Z,10.10
2019-04-03T20:13:39.565Z,10.20
2019-04-03T20:16:07.510Z,10.40
2019-04-03T20:18:37.430Z,10.30
2019-04-03T20:21:05.414Z,10.10
2019-04-03T20:23:33.416Z,10.20
2019-04-03T20:26:04.560Z,10.10
2019-04-03T20:28:32.952Z,10.10
2019-04-03T20:31:00.882Z,10.00
2019-04-03T20:33:29.834Z,9.80
2019-04-03T20:35:58.692Z,9.80
2019-04-03T20:38:28.109Z,9.80
2019-04-03T20:40:56.323Z,9.80
2019-04-03T20:43:24.228Z,9.60
2019-04-03T20:45:52.227Z,9.70
2019-04-03T20:48:21.127Z,9.90
2019-04-03T20:50:52.312Z,9.90
2019-04-03T20:53:21.191Z,10.00
2019-04-03T20:55:49.141Z,10.10
2019-04-03T20:58:19.228Z,9.80
2019-04-03T21:00:49.851Z,9.80
2019-04-03T21:03:17.112Z,9.80
2019-04-03T21:05:48.863Z,9.90
2019-04-03T21:08:17.503Z,10.00
2019-04-03T21:10:46.347Z,10.00
2019-04-03T21:13:15.550Z,10.00
2019-04-03T21:15:45.652Z,10.10
2019-04-03T21:18:13.930Z,10.10
2019-04-03T21:20:42.719Z,10.20
2019-04-03T21:23:11.016Z,10.30
2019-04-03T21:25:40.691Z,10.30
2019-04-03T21:28:10.595Z,10.20
2019-04-03T21:30:38.410Z,10.50
2019-04-03T21:33:06.304Z,10.30
2019-04-03T21:35:35.752Z,10.20
2019-04-03T21:38:04.783Z,10.20
2019-04-03T21:40:33.640Z,10.10
2019-04-03T21:43:03.669Z,10.00
2019-04-03T21:45:38.731Z,10.00
2019-04-03T21:48:07.106Z,10.00
2019-04-03T21:50:36.987Z,10.20
2019-04-03T21:53:05.866Z,10.20
2019-04-03T21:55:34.824Z,10.40
2019-04-03T21:58:03.767Z,10.40
2019-04-03T22:00:49.844Z,10.70
2019-04-03T22:03:19.395Z,10.30
2019-04-03T22:05:47.341Z,10.50
2019-04-03T22:08:15.251Z,10.30
2019-04-03T22:10:44.089Z,10.40
2019-04-03T22:13:11.972Z,10.00
2019-04-03T22:15:39.864Z,10.00
2019-04-03T22:18:07.850Z,10.10
2019-04-03T22:20:35.827Z,10.30
2019-04-03T22:23:04.889Z,10.70
2019-04-03T22:25:33.562Z,10.30
2019-04-03T22:28:01.530Z,10.50
2019-04-03T22:30:29.496Z,10.70
2019-04-03T22:32:57.379Z,10.80
2019-04-03T22:35:27.889Z,11.10
2019-04-03T22:37:55.154Z,10.80
2019-04-03T22:40:23.252Z,10.70
2019-04-03T22:42:54.180Z,10.60
2019-04-03T22:45:22.117Z,10.80
2019-04-03T22:47:50.185Z,10.90
2019-04-03T22:50:19.182Z,11.20
2019-04-03T22:52:59.871Z,11.40
2019-04-03T22:55:27.917Z,11.30
